Lewistown, MT

2:09 AM MDT on September 20, 2014 (GMT -0600)
MesoWest Lewistown Divide MT-200 MP 90.3 MT US MT DOT | Change Station
CLOSE
Current Station
Personal Weather Station
Location: Lewistown, MT
Elevation: 4624 ft
Nearby Weather Stations

Elev 4624 ft 47.06 °N, 109.18 °W | Updated 437 days ago

Clear
Clear
48 °F
Feels Like 48 °F
N
6
Wind Variable Wind from West
Gusts 8 mph

Today
High -- | Low -- °F
--% Chance of Precip.
Yesterday
High -- | Low -- °F
Precip. -- in
7:01 AM 7:18 PM
Waning Crescent, 14% visible
Pressure 30.02 in
Visibility 10.0 miles
Clouds Clear
Dew Point 41 °F
Humidity 79%
Rainfall 0.00 in
Snow Depth Not available.
UV 0 out of 12
Pollen 6.90 out of 12
Air Quality Not available.
Flu Activity Not available.
METAR KLWT 200754Z AUTO 27009KT 10SM CLR 11/05 A3009 RMK AO2 SLP165 T01060050

More Conditions Fewer Conditions

Pressure 30.02 in
Visibility 10.0 miles
Clouds Clear
Dew Point 41 °F
Humidity 79%
Rainfall 0.00 in
Snow Depth Not available.
UV 0 out of 12
Pollen 6.90 out of 12
Air Quality Not available.
Flu Activity Not available.
METAR KLWT 200754Z AUTO 27009KT 10SM CLR 11/05 A3009 RMK AO2 SLP165 T01060050

More Conditions Fewer Conditions

10-Day Weather Forecast

Almanac

Astronomy

Sep. 20, 2014 Rise Set
Actual Time 7:01 AM MDT 7:18 PM MDT
Civil Twilight 6:30 AM MDT 7:48 PM MDT
Nautical Twilight 5:54 AM MDT 8:24 PM MDT
Astronomical Twilight 5:17 AM MDT 9:01 PM MDT
Moon 3:32 AM MDT 5:32 PM MDT
Length of Visible Light 13h 18m
Length of Day
12h 17m
Tomorrow will be 3m 20s shorter.
Waning Crescent, 14% of the Moon is Illuminated
Today
Waning Crescent
Sep 24
New
Oct 1
First Quarter
Oct 8
Full
Oct 15
Last Quarter

Today's Extremes

State Highs State Lows

Community

WunderPhotos

Upload Photos

1,754,793 photos uploaded!

WunderBlogs® & News

Nearby

Snow Depth

Station Depth Elevation
Calvert Creek 0 in 6430 ft
Tepee Creek 0 in 8000 ft
Stringer Creek 0 in 6550 ft
Lakeview Ridge 0 in 7400 ft
Black Pine 1 in 7210 ft

Earthquake Activity

City Distance Mag. Time & Date
No recent earthquake activity has been reported nearby.
Minimum magnitude displayed is 2.5.

Coastal Water Temperatures

Place Temperature
No Stations Reporting

Nearby Weather Stations